Time;durP1;ratioP1;P1;durP2;ratioP2;P2;SDS_P1;SDS_P2;PMS_P1;PMS_P2;Temp;Humidity;BMP_temperature;BMP_pressure;BME280_temperature;BME280_humidity;BME280_pressure;Samples;Min_cycle;Max_cycle;Signal;HPM_P1;HPM_P2
2023/05/27 00:00:51;;;;;;;0.40;0.40;;;;;;;10.45;71.73;101667.63;5125259;28;20075;-64
2023/05/27 00:03:17;;;;;;;0.40;0.40;;;;;;;10.45;72.31;101666.78;5125047;28;20030;-63
2023/05/27 00:05:42;;;;;;;2.38;1.67;;;;;;;10.34;72.38;101651.91;5124971;28;20023;-62
2023/05/27 00:08:07;;;;;;;0.40;0.40;;;;;;;10.45;72.49;101675.41;5124878;28;20027;-63
2023/05/27 00:10:33;;;;;;;0.30;0.30;;;;;;;10.39;72.87;101667.56;5124653;28;20027;-62
2023/05/27 00:12:58;;;;;;;0.40;0.40;;;;;;;10.45;73.14;101675.41;5125021;28;20007;-64
2023/05/27 00:15:24;;;;;;;0.30;0.30;;;;;;;10.47;73.23;101672.88;5125064;28;20058;-63
2023/05/27 00:17:49;;;;;;;1.52;1.50;;;;;;;10.47;73.29;101660.78;5124508;28;20422;-63
2023/05/27 00:20:15;;;;;;;0.30;0.30;;;;;;;10.51;73.37;101661.69;5124496;28;20160;-62
2023/05/27 00:22:41;;;;;;;0.35;0.35;;;;;;;10.48;73.95;101656.47;5124489;28;20039;-64
2023/05/27 00:25:07;;;;;;;0.30;0.30;;;;;;;10.46;73.82;101661.63;5124857;28;20030;-63
2023/05/27 00:27:33;;;;;;;0.40;0.40;;;;;;;10.49;73.29;101669.47;5124874;28;20023;-63
2023/05/27 00:29:58;;;;;;;0.40;0.40;;;;;;;10.52;73.42;101674.69;5123992;28;20020;-63
2023/05/27 00:32:24;;;;;;;0.40;0.40;;;;;;;10.46;74.34;101666.84;5124542;28;20031;-63
2023/05/27 00:34:49;;;;;;;0.32;0.32;;;;;;;10.46;74.41;101659.03;5124630;28;20026;-63
2023/05/27 00:37:15;;;;;;;0.30;0.30;;;;;;;10.44;74.67;101660.72;5124454;28;20027;-63
2023/05/27 00:39:40;;;;;;;0.30;0.30;;;;;;;10.44;74.75;101670.22;5124561;28;20019;-63
2023/05/27 00:42:07;;;;;;;0.30;0.30;;;;;;;10.46;74.46;101660.72;5124287;28;20023;-63
2023/05/27 00:44:32;;;;;;;0.30;0.30;;;;;;;10.50;74.10;101660.81;5124283;28;20383;-63
2023/05/27 00:46:58;;;;;;;0.40;0.40;;;;;;;10.49;74.29;101669.47;5124322;28;20088;-63
2023/05/27 00:49:26;;;;;;;0.43;0.43;;;;;;;10.41;74.63;101660.66;5124706;28;20471;-64
2023/05/27 00:51:52;;;;;;;0.30;0.30;;;;;;;10.38;74.26;101661.47;5124372;28;20094;-63
2023/05/27 00:54:17;;;;;;;0.30;0.30;;;;;;;10.33;74.29;101663.16;5124462;28;20526;-63
2023/05/27 00:56:43;;;;;;;0.30;0.30;;;;;;;10.35;73.67;101666.63;5124241;28;20027;-63
2023/05/27 00:59:09;;;;;;;0.50;0.50;;;;;;;10.36;73.95;101662.31;5124544;28;20552;-63
2023/05/27 01:01:36;;;;;;;0.30;0.30;;;;;;;10.38;73.63;101658.03;5124055;28;20027;-64
2023/05/27 01:04:03;;;;;;;0.40;0.40;;;;;;;10.36;73.67;101650.22;5105974;28;20024;-64
2023/05/27 01:06:36;;;;;;;0.30;0.30;;;;;;;10.43;73.30;101661.56;5124098;28;20440;-64
2023/05/27 01:09:11;;;;;;;0.40;0.40;;;;;;;10.39;72.84;101645.06;5124425;28;20019;-64
2023/05/27 01:11:50;;;;;;;0.47;0.47;;;;;;;10.35;72.76;101650.22;5124256;28;20016;-64
2023/05/27 01:14:17;;;;;;;0.30;0.30;;;;;;;10.27;72.93;101642.34;5105940;28;20028;-63
2023/05/27 01:16:46;;;;;;;0.30;0.30;;;;;;;10.11;73.38;101634.31;5124128;28;20065;-63
2023/05/27 01:19:26;;;;;;;0.30;0.30;;;;;;;10.04;73.07;101645.47;5124003;28;20048;-65
2023/05/27 01:21:54;;;;;;;0.30;0.30;;;;;;;9.92;73.30;101647.03;5105761;28;20031;-64
2023/05/27 01:24:19;;;;;;;0.30;0.30;;;;;;;9.94;73.35;101644.47;5123944;28;20035;-63
2023/05/27 01:26:45;;;;;;;0.40;0.40;;;;;;;9.88;73.48;101644.38;5123748;28;20028;-64
2023/05/27 01:29:11;;;;;;;0.30;0.30;;;;;;;9.84;73.58;101643.47;5123690;28;20026;-63
2023/05/27 01:32:07;;;;;;;2.60;2.35;;;;;;;9.77;74.07;101637.34;5124029;28;20023;-63
2023/05/27 01:34:42;;;;;;;0.30;0.30;;;;;;;9.69;74.43;101640.66;5124118;28;20028;-64
2023/05/27 01:37:12;;;;;;;0.40;0.40;;;;;;;9.62;74.72;101637.06;5124175;28;20051;-64
2023/05/27 01:39:40;;;;;;;1.08;1.02;;;;;;;9.65;74.61;101635.41;5124450;28;20030;-63
2023/05/27 01:42:06;;;;;;;0.30;0.30;;;;;;;9.63;75.10;101618.94;5127566;28;20027;-63
2023/05/27 01:44:32;;;;;;;0.52;0.52;;;;;;;9.74;74.92;101631.22;5127855;28;20065;-64
2023/05/27 01:47:01;;;;;;;0.40;0.40;;;;;;;9.82;75.02;101632.22;5127516;28;20032;-63
2023/05/27 01:49:28;;;;;;;1.88;1.77;;;;;;;9.92;74.97;101635.78;5127725;28;20062;-64
2023/05/27 01:51:54;;;;;;;0.30;0.30;;;;;;;9.94;75.00;101643.59;5127424;28;20430;-64
2023/05/27 01:54:19;;;;;;;0.30;0.30;;;;;;;9.87;74.97;101630.53;5127611;28;20514;-63
2023/05/27 01:56:45;;;;;;;0.40;0.40;;;;;;;9.60;74.72;101598.16;5127432;28;20023;-63
2023/05/27 01:59:10;;;;;;;0.30;0.30;;;;;;;9.74;74.68;101629.50;5109079;28;20019;-64
2023/05/27 02:01:36;;;;;;;0.40;0.40;;;;;;;9.72;74.65;101636.38;5127202;28;20023;-64
2023/05/27 02:04:01;;;;;;;0.98;0.63;;;;;;;9.69;74.43;101633.75;5127450;28;20019;-64
2023/05/27 02:06:27;;;;;;;0.30;0.30;;;;;;;9.77;74.40;101639.94;5127186;28;20031;-64
2023/05/27 02:08:52;;;;;;;0.30;0.30;;;;;;;9.79;74.39;101638.22;5127699;28;20031;-63
2023/05/27 02:11:17;;;;;;;0.40;0.40;;;;;;;9.77;74.59;101636.44;5127104;28;20045;-63
2023/05/27 02:13:43;;;;;;;0.40;0.40;;;;;;;9.73;74.42;101624.31;5127248;28;20167;-64
2023/05/27 02:16:08;;;;;;;0.40;0.40;;;;;;;9.65;74.50;101617.25;5127368;28;20059;-63
2023/05/27 02:18:35;;;;;;;0.40;0.40;;;;;;;9.72;74.51;101620.81;5126964;28;20120;-63
2023/05/27 02:21:05;;;;;;;0.40;0.40;;;;;;;9.78;74.16;101636.47;5127209;28;20020;-63
2023/05/27 02:23:31;;;;;;;0.40;0.40;;;;;;;9.86;74.33;101636.59;5126824;28;20059;-65
2023/05/27 02:25:57;;;;;;;0.30;0.30;;;;;;;9.85;74.72;101637.44;5127178;28;20455;-64
2023/05/27 02:28:22;;;;;;;0.35;0.35;;;;;;;9.74;74.67;101637.28;5127025;28;20042;-64
2023/05/27 02:30:47;;;;;;;0.40;0.40;;;;;;;9.56;75.10;101624.91;5126927;28;20035;-62
2023/05/27 02:33:13;;;;;;;0.40;0.40;;;;;;;9.47;76.48;101619.59;5126478;28;20012;-63
2023/05/27 02:35:38;;;;;;;1.85;1.75;;;;;;;9.48;78.20;101629.09;5126957;28;20016;-63
2023/05/27 02:38:03;;;;;;;0.40;0.40;;;;;;;9.53;78.39;101632.63;5126542;28;20027;-63
2023/05/27 02:40:29;;;;;;;0.40;0.40;;;;;;;9.64;77.82;101643.16;5126613;28;20088;-64
2023/05/27 02:42:56;;;;;;;6.50;1.25;;;;;;;9.76;77.17;101648.53;5126596;28;20085;-62
2023/05/27 02:45:21;;;;;;;0.40;0.40;;;;;;;9.52;76.99;101641.28;5108435;28;20069;-64
2023/05/27 02:47:47;;;;;;;0.40;0.40;;;;;;;9.35;77.74;101633.19;5126968;28;20024;-63
2023/05/27 02:50:12;;;;;;;0.40;0.40;;;;;;;9.29;79.13;101626.22;5126589;28;20455;-64
2023/05/27 02:52:38;;;;;;;0.30;0.30;;;;;;;9.28;80.36;101612.38;5125464;28;20034;-64
2023/05/27 02:55:04;;;;;;;0.30;0.30;;;;;;;9.37;81.26;101619.44;5126737;28;20043;-63
2023/05/27 02:57:29;;;;;;;0.30;0.30;;;;;;;9.49;81.06;101625.66;5126232;28;20031;-63
2023/05/27 02:59:55;;;;;;;0.40;0.40;;;;;;;9.66;80.32;101625.94;5126413;28;20027;-64
2023/05/27 03:02:20;;;;;;;0.30;0.30;;;;;;;9.79;79.24;101635.63;5126185;28;20023;-63
2023/05/27 03:04:47;;;;;;;0.30;0.30;;;;;;;9.63;78.79;101637.09;5126319;28;20024;-64
2023/05/27 03:07:13;;;;;;;0.40;0.40;;;;;;;9.50;79.37;101632.59;5126137;28;20026;-63
2023/05/27 03:09:38;;;;;;;0.95;0.95;;;;;;;9.58;80.46;101625.81;5126114;28;20087;-64
2023/05/27 03:12:05;;;;;;;0.30;0.30;;;;;;;9.78;81.53;101620.91;5125979;28;20034;-64
2023/05/27 03:14:30;;;;;;;0.40;0.40;;;;;;;10.06;82.01;101623.03;5126060;28;20050;-62
2023/05/27 03:16:56;;;;;;;0.40;0.40;;;;;;;10.33;81.43;101629.44;5126136;28;20057;-64
2023/05/27 03:19:21;;;;;;;0.30;0.30;;;;;;;10.60;81.17;101630.63;5125983;28;20046;-64
2023/05/27 03:21:47;;;;;;;0.40;0.40;;;;;;;10.77;79.58;101635.13;5125799;28;20024;-63
2023/05/27 03:24:13;;;;;;;0.60;0.60;;;;;;;10.68;79.10;101633.31;5125654;28;20030;-63
2023/05/27 03:26:38;;;;;;;2.70;2.25;;;;;;;10.68;79.52;101635.03;5107414;28;20020;-63
2023/05/27 03:29:04;;;;;;;0.30;0.30;;;;;;;10.81;80.76;101631.72;5125724;28;20046;-63
2023/05/27 03:31:29;;;;;;;0.30;0.30;;;;;;;11.08;80.65;101635.44;5125726;28;20451;-63
2023/05/27 03:33:54;;;;;;;0.30;0.30;;;;;;;11.39;80.78;101633.09;5125486;28;20432;-63
2023/05/27 03:36:20;;;;;;;0.30;0.30;;;;;;;11.78;80.52;101643.78;5106963;28;20024;-63
2023/05/27 03:38:46;;;;;;;0.30;0.30;;;;;;;12.05;79.42;101638.72;5125922;28;20030;-64
2023/05/27 03:41:12;;;;;;;0.30;0.30;;;;;;;11.83;75.72;101632.53;5125429;28;20383;-64
2023/05/27 03:43:37;;;;;;;0.30;0.30;;;;;;;11.70;77.07;101628.97;5125406;28;20463;-64
2023/05/27 03:46:03;;;;;;;0.30;0.30;;;;;;;11.84;78.79;101624.72;5125529;28;20065;-63
2023/05/27 03:48:28;;;;;;;0.30;0.30;;;;;;;12.21;78.82;101633.63;5125488;28;20016;-63
2023/05/27 03:50:53;;;;;;;0.40;0.40;;;;;;;12.55;78.13;101633.78;5125305;28;20027;-63
2023/05/27 03:53:19;;;;;;;0.30;0.30;;;;;;;12.89;77.48;101628.63;5124927;28;20019;-64
2023/05/27 03:55:44;;;;;;;0.40;0.40;;;;;;;13.22;75.91;101639.09;5125237;28;20055;-64
2023/05/27 03:58:13;;;;;;;0.30;0.30;;;;;;;13.63;75.75;101639.97;5125084;28;20024;-64
2023/05/27 04:00:41;;;;;;;0.30;0.30;;;;;;;14.02;75.13;101639.03;5106820;28;20025;-63
2023/05/27 04:03:08;;;;;;;0.20;0.20;;;;;;;14.50;75.25;101630.97;5125156;28;20026;-63
2023/05/27 04:05:34;;;;;;;0.55;0.55;;;;;;;15.02;74.70;101649.00;5125101;28;20112;-63
2023/05/27 04:08:01;;;;;;;0.35;0.35;;;;;;;15.39;73.49;101644.34;5124883;28;20015;-64
2023/05/27 04:10:27;;;;;;;0.30;0.30;;;;;;;15.54;72.60;101641.63;5125153;28;20024;-63
2023/05/27 04:12:52;;;;;;;3.00;1.92;;;;;;;15.77;72.01;101637.88;5124792;28;20033;-65
2023/05/27 04:15:17;;;;;;;0.65;0.65;;;;;;;15.98;70.74;101643.78;5125056;28;20102;-63
2023/05/27 04:17:43;;;;;;;2.80;2.25;;;;;;;16.35;71.24;101642.50;5124902;28;20026;-62
2023/05/27 04:20:13;;;;;;;0.85;0.85;;;;;;;16.71;69.80;101642.00;5124705;28;20044;-63
2023/05/27 04:22:40;;;;;;;0.30;0.30;;;;;;;16.84;68.86;101643.56;5124604;28;20020;-63
2023/05/27 04:25:06;;;;;;;0.30;0.30;;;;;;;16.93;65.97;101646.94;5124713;28;20019;-63
2023/05/27 04:27:31;;;;;;;0.75;0.75;;;;;;;17.04;63.43;101633.66;5124753;28;20400;-63
2023/05/27 04:29:57;;;;;;;0.55;0.55;;;;;;;17.17;63.28;101631.72;5124682;28;20023;-64
2023/05/27 04:32:25;;;;;;;2.83;2.25;;;;;;;17.48;63.24;101648.72;5124525;28;20023;-63
2023/05/27 04:34:50;;;;;;;0.60;0.60;;;;;;;17.73;63.05;101640.41;5124677;28;20041;-64
2023/05/27 04:37:16;;;;;;;0.20;0.20;;;;;;;17.80;61.73;101642.88;5124586;28;20028;-63
2023/05/27 04:39:45;;;;;;;2.15;0.82;;;;;;;17.83;60.20;101637.56;5124778;28;20028;-63
2023/05/27 04:42:12;;;;;;;0.40;0.40;;;;;;;17.96;59.12;101635.56;5124522;28;20024;-63
2023/05/27 04:44:38;;;;;;;0.20;0.20;;;;;;;18.28;58.21;101648.09;5124640;28;20028;-63
2023/05/27 04:47:07;;;;;;;0.20;0.20;;;;;;;18.53;58.34;101637.06;5124598;28;20027;-63
2023/05/27 04:49:32;;;;;;;0.20;0.20;;;;;;;18.88;57.52;101655.56;5124500;28;20051;-63
2023/05/27 04:51:59;;;;;;;0.20;0.20;;;;;;;19.28;57.27;101651.97;5124226;28;20106;-63
2023/05/27 04:54:25;;;;;;;0.20;0.20;;;;;;;19.59;55.89;101663.50;5106241;28;20038;-63
2023/05/27 04:56:51;;;;;;;0.93;0.85;;;;;;;19.77;53.98;101666.53;5124231;28;20475;-63
2023/05/27 04:59:19;;;;;;;0.35;0.35;;;;;;;19.84;53.31;101660.19;5124374;28;20428;-64
2023/05/27 05:02:09;;;;;;;1.75;1.65;;;;;;;19.89;53.20;101665.34;5124231;28;20490;-63
2023/05/27 05:04:34;;;;;;;0.20;0.20;;;;;;;20.17;52.31;101657.56;5124054;28;20059;-63
2023/05/27 05:06:59;;;;;;;0.20;0.20;;;;;;;20.52;52.13;101660.06;5105859;28;20023;-63
2023/05/27 05:09:25;;;;;;;0.20;0.20;;;;;;;20.91;51.38;101669.44;5124154;28;20023;-64
2023/05/27 05:11:50;;;;;;;0.20;0.20;;;;;;;21.15;51.14;101679.25;5124170;28;20098;-63
2023/05/27 05:14:16;;;;;;;0.43;0.43;;;;;;;21.27;49.37;101672.69;5124270;28;20019;-62
2023/05/27 05:16:41;;;;;;;0.20;0.20;;;;;;;21.36;49.31;101656.53;5128340;28;20027;-64
2023/05/27 05:19:07;;;;;;;0.20;0.20;;;;;;;21.81;49.55;101666.47;5128036;28;20035;-64
2023/05/27 05:21:32;;;;;;;0.20;0.20;;;;;;;22.41;49.28;101666.91;5128323;28;20047;-63
2023/05/27 05:23:58;;;;;;;0.20;0.20;;;;;;;22.77;48.31;101665.56;5128230;28;20047;-64
2023/05/27 05:26:23;;;;;;;0.20;0.20;;;;;;;23.09;46.36;101682.84;5128284;28;20023;-64
2023/05/27 05:28:48;;;;;;;0.10;0.10;;;;;;;23.35;47.28;101672.94;5128078;28;20047;-65
2023/05/27 05:31:14;;;;;;;0.20;0.20;;;;;;;23.21;46.13;101666.44;5128143;28;20039;-64
2023/05/27 05:33:40;;;;;;;0.57;0.57;;;;;;;23.53;45.86;101673.97;5128277;28;20467;-64
2023/05/27 05:36:06;;;;;;;6.03;2.17;;;;;;;23.86;44.47;101672.56;5127996;28;20027;-64
2023/05/27 05:38:31;;;;;;;0.10;0.10;;;;;;;23.82;43.44;101671.81;5127753;28;20030;-64
2023/05/27 05:40:56;;;;;;;0.52;0.52;;;;;;;23.74;43.79;101672.16;5128177;28;20379;-63
2023/05/27 05:43:22;;;;;;;0.15;0.15;;;;;;;23.59;43.88;101670.19;5127842;28;20020;-64
2023/05/27 05:45:47;;;;;;;1.00;0.77;;;;;;;23.46;43.27;101670.72;5127919;28;20040;-64
2023/05/27 05:48:13;;;;;;;0.10;0.10;;;;;;;23.32;42.23;101668.66;5127845;28;20088;-64
2023/05/27 05:50:38;;;;;;;0.10;0.10;;;;;;;23.51;43.39;101668.72;5127854;28;20020;-64
2023/05/27 05:53:04;;;;;;;0.50;0.50;;;;;;;23.42;42.53;101666.47;5127524;28;20027;-64
2023/05/27 05:55:29;;;;;;;0.55;0.55;;;;;;;22.88;42.73;101673.06;5128009;28;20027;-65
2023/05/27 05:57:54;;;;;;;0.20;0.20;;;;;;;22.63;42.52;101675.84;5127661;28;20030;-64
2023/05/27 06:00:20;;;;;;;0.20;0.20;;;;;;;22.19;42.11;101672.16;5127692;28;20024;-64
2023/05/27 06:02:45;;;;;;;0.10;0.10;;;;;;;21.83;42.79;101675.22;5127213;28;20043;-64
2023/05/27 06:05:11;;;;;;;0.10;0.10;;;;;;;21.96;43.31;101665.94;5127423;28;20450;-65
2023/05/27 06:07:36;;;;;;;0.73;0.73;;;;;;;22.13;43.46;101667.09;5127273;28;20024;-64
2023/05/27 06:10:02;;;;;;;0.20;0.20;;;;;;;22.49;42.74;101666.59;5127490;28;20075;-64
2023/05/27 06:12:27;;;;;;;0.20;0.20;;;;;;;22.60;42.44;101670.66;5127458;28;20022;-63
2023/05/27 06:14:52;;;;;;;0.10;0.10;;;;;;;23.11;42.07;101671.28;5127430;28;20050;-63
2023/05/27 06:17:18;;;;;;;0.10;0.10;;;;;;;23.62;41.12;101665.63;5127079;28;20032;-64
2023/05/27 06:19:43;;;;;;;0.10;0.10;;;;;;;23.74;39.47;101673.94;5127275;28;20071;-64
2023/05/27 06:22:08;;;;;;;0.10;0.10;;;;;;;23.80;39.00;101673.69;5126938;28;20020;-64
2023/05/27 06:24:34;;;;;;;0.13;0.13;;;;;;;23.81;39.13;101669.25;5127028;28;20345;-64
2023/05/27 06:27:00;;;;;;;0.10;0.10;;;;;;;23.99;38.50;101670.22;5125996;28;20038;-64
2023/05/27 06:29:26;;;;;;;0.52;0.52;;;;;;;23.87;38.38;101679.56;5127240;28;20029;-63
2023/05/27 06:31:51;;;;;;;5.70;1.10;;;;;;;23.82;38.15;101665.69;5126854;28;20020;-64
2023/05/27 06:34:17;;;;;;;0.10;0.10;;;;;;;23.95;38.66;101679.22;5126919;28;20080;-64
2023/05/27 06:36:42;;;;;;;0.47;0.47;;;;;;;23.75;38.07;101676.53;5126824;28;20031;-65
2023/05/27 06:39:08;;;;;;;0.40;0.40;;;;;;;23.54;37.81;101672.19;5127052;28;20112;-64
2023/05/27 06:41:34;;;;;;;0.10;0.10;;;;;;;23.16;37.61;101676.38;5126776;28;20103;-65
2023/05/27 06:43:59;;;;;;;0.20;0.20;;;;;;;22.78;38.23;101680.50;5126652;28;20020;-65
2023/05/27 06:46:25;;;;;;;0.20;0.20;;;;;;;22.52;38.66;101673.56;5126991;28;20027;-65
2023/05/27 06:48:51;;;;;;;1.33;1.10;;;;;;;22.43;38.71;101685.38;5126638;28;20024;-64
2023/05/27 06:51:16;;;;;;;0.85;0.85;;;;;;;22.45;39.13;101678.25;5126573;28;20043;-63
2023/05/27 06:53:41;;;;;;;0.10;0.10;;;;;;;22.53;38.40;101676.16;5126254;28;20045;-63
2023/05/27 06:56:07;;;;;;;0.20;0.20;;;;;;;22.84;38.89;101678.56;5126487;28;20089;-64
2023/05/27 06:58:32;;;;;;;0.20;0.20;;;;;;;23.18;38.20;101668.38;5126316;28;20023;-65
2023/05/27 07:00:58;;;;;;;0.20;0.20;;;;;;;23.52;36.52;101681.06;5126502;28;20027;-64
2023/05/27 07:03:23;;;;;;;0.10;0.10;;;;;;;23.63;36.58;101675.28;5126060;28;20031;-63
2023/05/27 07:05:49;;;;;;;0.32;0.32;;;;;;;23.48;35.56;101683.91;5126438;28;20011;-64
2023/05/27 07:08:14;;;;;;;0.32;0.32;;;;;;;23.41;35.96;101678.00;5126072;28;20034;-63
2023/05/27 07:10:40;;;;;;;0.22;0.22;;;;;;;23.34;35.76;101684.47;5126391;28;20051;-64
2023/05/27 07:13:05;;;;;;;0.10;0.10;;;;;;;23.16;34.90;101673.72;5126148;28;20094;-63
2023/05/27 07:15:31;;;;;;;0.20;0.20;;;;;;;23.46;35.39;101676.03;5126066;28;20019;-65
2023/05/27 07:17:56;;;;;;;0.10;0.10;;;;;;;23.69;34.09;101686.56;5125950;28;20030;-65
2023/05/27 07:20:22;;;;;;;0.93;0.73;;;;;;;23.62;32.97;101681.53;5125892;28;20058;-65
2023/05/27 07:22:47;;;;;;;2.05;1.30;;;;;;;23.52;33.85;101667.81;5125551;28;20019;-65
2023/05/27 07:25:13;;;;;;;0.10;0.10;;;;;;;23.84;32.88;101674.41;5125985;28;20022;-65
2023/05/27 07:27:38;;;;;;;0.45;0.45;;;;;;;23.97;32.74;101674.72;5125585;28;20027;-64
2023/05/27 07:30:04;;;;;;;0.20;0.20;;;;;;;23.86;33.03;101676.06;5125797;28;20046;-64
2023/05/27 07:32:30;;;;;;;0.10;0.10;;;;;;;24.12;33.23;101676.66;5125537;28;20034;-64
2023/05/27 07:34:56;;;;;;;0.22;0.22;;;;;;;24.32;32.59;101671.41;5125848;28;20043;-64
2023/05/27 07:37:23;;;;;;;1.00;1.00;;;;;;;24.29;32.20;101683.03;5125440;28;20486;-63
2023/05/27 07:39:50;;;;;;;0.35;0.35;;;;;;;23.95;30.51;101672.13;5125692;28;20023;-63
2023/05/27 07:42:16;;;;;;;0.45;0.45;;;;;;;23.80;30.58;101675.47;5125466;28;20094;-63
2023/05/27 07:44:42;;;;;;;0.15;0.15;;;;;;;23.80;30.98;101676.34;5125520;28;20016;-61
2023/05/27 07:47:07;;;;;;;2.63;2.20;;;;;;;23.81;30.66;101669.25;5125516;28;20016;-68
2023/05/27 07:49:33;;;;;;;0.85;0.70;;;;;;;23.89;30.26;101673.28;5125187;28;20082;-64
2023/05/27 07:51:58;;;;;;;2.17;2.08;;;;;;;24.02;30.16;101672.72;5125163;28;20024;-66
2023/05/27 07:54:24;;;;;;;0.20;0.20;;;;;;;24.24;30.59;101677.94;5125351;28;20126;-63
2023/05/27 07:56:49;;;;;;;0.10;0.10;;;;;;;24.26;29.51;101675.22;5125150;28;20024;-61
2023/05/27 07:59:15;;;;;;;0.20;0.20;;;;;;;24.09;29.26;101675.97;5124840;28;20103;-61
2023/05/27 08:01:40;;;;;;;0.17;0.17;;;;;;;24.07;29.15;101665.44;5124991;28;20028;-63
2023/05/27 08:04:05;;;;;;;0.17;0.17;;;;;;;24.02;28.69;101670.94;5125027;28;20024;-63
2023/05/27 08:06:31;;;;;;;0.10;0.10;;;;;;;24.16;29.33;101657.97;5124869;28;20026;-62
2023/05/27 08:08:56;;;;;;;0.20;0.20;;;;;;;24.55;29.62;101658.84;5125119;28;20032;-66
2023/05/27 08:11:22;;;;;;;0.10;0.10;;;;;;;24.99;29.46;101663.81;5124974;28;20019;-66
2023/05/27 08:13:47;;;;;;;0.20;0.20;;;;;;;25.38;29.20;101671.63;5106815;28;20023;-63
2023/05/27 08:16:13;;;;;;;0.20;0.20;;;;;;;25.72;28.21;101661.91;5124948;28;20035;-63
2023/05/27 08:18:38;;;;;;;0.10;0.10;;;;;;;26.01;28.10;101668.44;5124561;28;20019;-62
2023/05/27 08:21:03;;;;;;;1.75;1.10;;;;;;;26.25;27.50;101660.88;5125191;28;20030;-63
2023/05/27 08:23:29;;;;;;;0.28;0.25;;;;;;;26.33;27.07;101660.50;5124281;28;20028;-70
2023/05/27 08:25:55;;;;;;;0.10;0.10;;;;;;;26.22;28.35;101653.94;5125138;28;20028;-60
2023/05/27 08:28:20;;;;;;;0.85;0.85;;;;;;;26.45;27.75;101662.50;5124815;28;20052;-60
2023/05/27 08:30:46;;;;;;;0.10;0.10;;;;;;;26.57;27.82;101660.06;5125006;28;20020;-60
2023/05/27 08:33:12;;;;;;;0.20;0.20;;;;;;;26.07;26.85;101662.78;5124696;28;20020;-66
2023/05/27 08:35:37;;;;;;;0.17;0.17;;;;;;;25.60;26.45;101663.41;5125025;28;20031;-64
2023/05/27 08:38:02;;;;;;;0.10;0.10;;;;;;;25.09;26.73;101655.38;5124464;28;20027;-60
2023/05/27 08:40:28;;;;;;;0.50;0.50;;;;;;;24.81;27.55;101664.69;5124188;28;20031;-60
2023/05/27 08:42:54;;;;;;;0.10;0.10;;;;;;;24.79;28.17;101667.44;5124463;28;20038;-59
2023/05/27 08:45:19;;;;;;;0.20;0.20;;;;;;;24.74;28.25;101653.50;5124505;28;20102;-61
2023/05/27 08:47:45;;;;;;;0.20;0.20;;;;;;;24.99;27.88;101657.63;5124441;28;20016;-60
2023/05/27 08:50:11;;;;;;;0.32;0.32;;;;;;;24.98;27.77;101646.16;5123948;28;20023;-59
2023/05/27 08:52:47;;;;;;;0.20;0.20;;;;;;;25.05;27.58;101659.97;5123889;28;20016;-60
2023/05/27 08:55:17;;;;;;;0.28;0.28;;;;;;;25.07;27.15;101654.59;5123975;28;20020;-61
2023/05/27 08:57:48;;;;;;;0.20;0.20;;;;;;;24.91;27.46;101668.63;5123992;28;20373;-62
2023/05/27 09:00:14;;;;;;;0.57;0.57;;;;;;;24.79;28.04;101651.50;5124300;28;20026;-61
2023/05/27 09:02:40;;;;;;;1.17;1.08;;;;;;;24.84;27.14;101653.91;5124387;28;20286;-60
2023/05/27 09:05:09;;;;;;;0.10;0.10;;;;;;;25.03;27.48;101650.38;5124069;28;20032;-61
2023/05/27 09:07:35;;;;;;;0.10;0.10;;;;;;;25.47;27.06;101652.56;5124116;28;20062;-60
2023/05/27 09:10:01;;;;;;;0.20;0.20;;;;;;;25.70;27.21;101637.19;5124316;28;20035;-60
2023/05/27 09:12:27;;;;;;;0.38;0.38;;;;;;;25.74;27.28;101649.41;5124388;28;20024;-61
2023/05/27 09:14:56;;;;;;;0.10;0.10;;;;;;;25.78;27.19;101647.44;5124463;28;20153;-60
2023/05/27 09:17:24;;;;;;;0.20;0.20;;;;;;;25.98;26.76;101646.38;5123889;28;20048;-61
2023/05/27 09:19:51;;;;;;;0.57;0.57;;;;;;;25.95;26.18;101643.00;5124073;28;20114;-60
2023/05/27 09:22:30;;;;;;;0.20;0.20;;;;;;;26.17;26.87;101647.13;5123839;28;20023;-61
2023/05/27 09:24:56;;;;;;;2.38;2.28;;;;;;;26.17;26.16;101647.13;5123737;28;20125;-60
2023/05/27 09:27:29;;;;;;;0.10;0.10;;;;;;;26.10;26.80;101638.66;5123804;28;20023;-61
2023/05/27 09:29:55;;;;;;;2.20;1.08;;;;;;;26.15;27.26;101641.06;5124193;28;20056;-61
2023/05/27 09:32:28;;;;;;;0.10;0.10;;;;;;;26.53;26.99;101638.09;5123714;28;20103;-61
2023/05/27 09:34:58;;;;;;;0.10;0.10;;;;;;;26.83;26.80;101637.25;5124339;28;20080;-60
2023/05/27 09:37:31;;;;;;;0.20;0.20;;;;;;;26.61;26.79;101637.66;5124067;28;20037;-61
2023/05/27 09:39:58;;;;;;;0.30;0.30;;;;;;;26.34;27.23;101638.28;5124263;28;20020;-60
2023/05/27 09:42:23;;;;;;;0.20;0.20;;;;;;;26.15;28.18;101630.41;5105451;28;20024;-60
2023/05/27 09:44:49;;;;;;;0.10;0.10;;;;;;;26.41;27.33;101628.13;5123699;28;20024;-59
2023/05/27 09:47:17;;;;;;;0.20;0.20;;;;;;;26.27;27.88;101626.19;5105685;28;20027;-60
2023/05/27 09:49:42;;;;;;;0.47;0.47;;;;;;;25.49;28.36;101625.88;5124044;28;20028;-60
2023/05/27 09:52:10;;;;;;;0.20;0.20;;;;;;;25.37;28.98;101628.25;5123812;28;20114;-61
2023/05/27 09:54:37;;;;;;;0.20;0.20;;;;;;;25.18;29.41;101632.78;5124064;28;20020;-60
2023/05/27 09:57:06;;;;;;;1.48;1.38;;;;;;;24.99;29.36;101617.78;5124173;28;20035;-60
2023/05/27 09:59:32;;;;;;;0.10;0.10;;;;;;;25.13;29.13;101631.22;5123715;28;20133;-60
2023/05/27 10:02:00;;;;;;;0.57;0.57;;;;;;;24.37;29.97;101625.16;5126374;28;20047;-61
2023/05/27 10:04:26;;;;;;;3.00;1.23;;;;;;;24.28;30.62;101620.28;5127492;28;20441;-59
2023/05/27 10:06:52;;;;;;;0.10;0.10;;;;;;;24.36;30.66;101604.00;5127372;28;20387;-59
2023/05/27 10:09:18;;;;;;;0.68;0.68;;;;;;;24.87;30.47;101612.13;5127609;28;20047;-60
2023/05/27 10:11:44;;;;;;;0.50;0.50;;;;;;;25.25;30.40;101610.28;5127425;28;20039;-60
2023/05/27 10:14:11;;;;;;;1.10;1.10;;;;;;;25.60;29.85;101606.69;5127318;28;20100;-61
2023/05/27 10:16:37;;;;;;;1.20;1.10;;;;;;;25.27;29.67;101599.56;5127625;28;20072;-59
2023/05/27 10:19:10;;;;;;;0.52;0.52;;;;;;;24.70;29.87;101605.00;5127004;28;20081;-60
2023/05/27 10:21:42;;;;;;;0.10;0.10;;;;;;;24.37;30.73;101609.22;5126787;28;20452;-60
2023/05/27 10:24:13;;;;;;;0.10;0.10;;;;;;;24.46;30.30;101601.75;5126976;28;20043;-59
2023/05/27 10:26:43;;;;;;;0.50;0.50;;;;;;;24.13;30.65;101612.09;5127443;28;20043;-59
2023/05/27 10:29:13;;;;;;;0.30;0.30;;;;;;;23.66;31.16;101608.03;5127395;28;20051;-60
2023/05/27 10:31:52;;;;;;;0.80;0.80;;;;;;;23.50;32.11;101602.53;5127186;28;20027;-60
2023/05/27 10:34:18;;;;;;;0.20;0.20;;;;;;;23.10;32.41;101594.53;5127116;28;20039;-59
2023/05/27 10:36:45;;;;;;;0.10;0.10;;;;;;;23.55;32.71;101605.84;5126847;28;20032;-59
2023/05/27 10:39:17;;;;;;;0.20;0.20;;;;;;;23.52;32.79;101606.88;5126772;28;20027;-59
2023/05/27 10:41:54;;;;;;;0.10;0.10;;;;;;;23.68;32.79;101602.66;5126962;28;20050;-60
2023/05/27 10:44:30;;;;;;;0.20;0.20;;;;;;;23.20;33.54;101595.84;5126861;28;20069;-59
2023/05/27 10:47:04;;;;;;;2.40;1.15;;;;;;;22.86;34.13;101594.63;5126846;28;20039;-60
2023/05/27 10:49:37;;;;;;;0.57;0.57;;;;;;;22.97;34.15;101591.53;5126582;28;20038;-60
2023/05/27 10:52:13;;;;;;;0.40;0.40;;;;;;;22.99;34.38;101592.31;5126553;28;20023;-61
2023/05/27 10:54:43;;;;;;;0.20;0.20;;;;;;;22.78;34.48;101587.84;5126423;28;20414;-61
2023/05/27 10:57:09;;;;;;;0.10;0.10;;;;;;;21.69;36.21;101602.56;5126266;28;20019;-60
2023/05/27 10:59:41;;;;;;;1.35;1.10;;;;;;;20.96;38.01;101597.16;5126543;28;20020;-60
2023/05/27 11:02:06;;;;;;;8.18;1.83;;;;;;;20.68;38.31;101597.13;5125986;28;20503;-60
2023/05/27 11:04:36;;;;;;;0.30;0.30;;;;;;;20.13;39.28;101583.84;5125719;28;20042;-61
2023/05/27 11:07:02;;;;;;;0.20;0.20;;;;;;;19.80;40.15;101604.09;5126175;28;20020;-61
2023/05/27 11:09:27;;;;;;;0.20;0.20;;;;;;;19.39;40.97;101596.41;5126070;28;20103;-60
2023/05/27 11:11:57;;;;;;;0.20;0.20;;;;;;;19.30;41.74;101600.16;5126346;28;20034;-60
2023/05/27 11:14:25;;;;;;;10.52;2.75;;;;;;;19.16;42.17;101594.38;5125583;28;20019;-60
2023/05/27 11:16:51;;;;;;;1.85;1.23;;;;;;;19.02;42.67;101595.59;5126112;28;20024;-60
2023/05/27 11:19:18;;;;;;;0.82;0.82;;;;;;;18.84;42.97;101586.38;5125969;28;20047;-61
2023/05/27 11:21:45;;;;;;;0.20;0.20;;;;;;;18.78;42.84;101591.78;5125902;28;20082;-60
2023/05/27 11:24:17;;;;;;;0.20;0.20;;;;;;;18.73;43.00;101589.25;5126055;28;20031;-61